sensor_id;sensor_type;location;lat;lon;timestamp;pressure;altitude;pressure_sealevel;temperature;humidity
46942;BME280;32676;52.630;4.896;2022-07-21T00:00:16;99817.34;;;21.94;70.75
46942;BME280;32676;52.630;4.896;2022-07-21T00:02:43;99834.13;;;21.96;70.57
46942;BME280;32676;52.630;4.896;2022-07-21T00:05:09;99842.81;;;21.98;70.34
46942;BME280;32676;52.630;4.896;2022-07-21T00:07:36;99848.47;;;21.95;70.75
46942;BME280;32676;52.630;4.896;2022-07-21T00:10:03;99856.22;;;21.98;70.11
46942;BME280;32676;52.630;4.896;2022-07-21T00:12:30;99835.09;;;21.95;70.43
46942;BME280;32676;52.630;4.896;2022-07-21T00:14:57;99826.66;;;21.90;70.95
46942;BME280;32676;52.630;4.896;2022-07-21T00:17:23;99823.28;;;21.88;70.47
46942;BME280;32676;52.630;4.896;2022-07-21T00:19:50;99830.34;;;21.89;70.80
46942;BME280;32676;52.630;4.896;2022-07-21T00:22:16;99836.53;;;21.89;70.85
46942;BME280;32676;52.630;4.896;2022-07-21T00:24:45;99828.09;;;21.84;70.96
46942;BME280;32676;52.630;4.896;2022-07-21T00:27:11;99821.91;;;21.83;71.42
46942;BME280;32676;52.630;4.896;2022-07-21T00:29:39;99807.84;;;21.81;71.91
46942;BME280;32676;52.630;4.896;2022-07-21T00:32:05;99790.72;;;21.74;72.23
46942;BME280;32676;52.630;4.896;2022-07-21T00:34:32;99773.25;;;21.70;72.51
46942;BME280;32676;52.630;4.896;2022-07-21T00:36:58;99775.22;;;21.68;72.73
46942;BME280;32676;52.630;4.896;2022-07-21T00:39:25;99763.16;;;21.64;73.10
46942;BME280;32676;52.630;4.896;2022-07-21T00:41:51;99754.72;;;21.59;73.06
46942;BME280;32676;52.630;4.896;2022-07-21T00:44:19;99775.53;;;21.65;72.92
46942;BME280;32676;52.630;4.896;2022-07-21T00:46:47;99758.09;;;21.61;73.46
46942;BME280;32676;52.630;4.896;2022-07-21T00:49:14;99778.38;;;21.63;73.35
46942;BME280;32676;52.630;4.896;2022-07-21T00:51:40;99783.72;;;21.63;72.95
46942;BME280;32676;52.630;4.896;2022-07-21T00:54:07;99782.88;;;21.63;73.24
46942;BME280;32676;52.630;4.896;2022-07-21T00:56:34;99782.00;;;21.62;73.22
46942;BME280;32676;52.630;4.896;2022-07-21T00:59:01;99782.16;;;21.61;73.72
46942;BME280;32676;52.630;4.896;2022-07-21T01:01:28;99798.06;;;21.62;73.74
46942;BME280;32676;52.630;4.896;2022-07-21T01:03:56;99804.25;;;21.63;73.94
46942;BME280;32676;52.630;4.896;2022-07-21T01:06:24;99789.34;;;21.60;73.43
46942;BME280;32676;52.630;4.896;2022-07-21T01:08:51;99774.72;;;21.55;74.25
46942;BME280;32676;52.630;4.896;2022-07-21T01:11:18;99756.31;;;21.52;74.44
46942;BME280;32676;52.630;4.896;2022-07-21T01:13:45;99764.31;;;21.52;74.50
46942;BME280;32676;52.630;4.896;2022-07-21T01:16:12;99760.97;;;21.50;74.42
46942;BME280;32676;52.630;4.896;2022-07-21T01:18:39;99777.84;;;21.50;74.83
46942;BME280;32676;52.630;4.896;2022-07-21T01:21:17;99778.69;;;21.51;74.94
46942;BME280;32676;52.630;4.896;2022-07-21T01:23:53;99775.34;;;21.49;75.34
46942;BME280;32676;52.630;4.896;2022-07-21T01:26:19;99766.59;;;21.46;75.29
46942;BME280;32676;52.630;4.896;2022-07-21T01:28:46;99772.78;;;21.47;75.65
46942;BME280;32676;52.630;4.896;2022-07-21T01:31:13;99774.59;;;21.46;75.74
46942;BME280;32676;52.630;4.896;2022-07-21T01:33:41;99768.84;;;21.41;76.17
46942;BME280;32676;52.630;4.896;2022-07-21T01:36:07;99763.50;;;21.41;76.32
46942;BME280;32676;52.630;4.896;2022-07-21T01:38:35;99774.06;;;21.43;76.55
46942;BME280;32676;52.630;4.896;2022-07-21T01:41:20;99774.47;;;21.38;76.79
46942;BME280;32676;52.630;4.896;2022-07-21T01:43:55;99786.56;;;21.42;76.78
46942;BME280;32676;52.630;4.896;2022-07-21T01:46:22;99784.88;;;21.41;76.73
46942;BME280;32676;52.630;4.896;2022-07-21T01:48:50;99783.19;;;21.40;76.85
46942;BME280;32676;52.630;4.896;2022-07-21T01:51:16;99803.47;;;21.43;76.55
46942;BME280;32676;52.630;4.896;2022-07-21T01:53:44;99791.22;;;21.40;76.60
46942;BME280;32676;52.630;4.896;2022-07-21T01:56:11;99790.50;;;21.38;76.80
46942;BME280;32676;52.630;4.896;2022-07-21T01:58:37;99800.22;;;21.39;77.19
46942;BME280;32676;52.630;4.896;2022-07-21T02:01:04;99803.72;;;21.40;77.09
46942;BME280;32676;52.630;4.896;2022-07-21T02:03:31;99791.66;;;21.36;77.84
46942;BME280;32676;52.630;4.896;2022-07-21T02:06:01;99780.41;;;21.32;77.88
46942;BME280;32676;52.630;4.896;2022-07-21T02:08:28;99788.44;;;21.32;78.34
46942;BME280;32676;52.630;4.896;2022-07-21T02:10:56;99773.66;;;21.28;78.45
46942;BME280;32676;52.630;4.896;2022-07-21T02:13:23;99779.00;;;21.28;78.68
46942;BME280;32676;52.630;4.896;2022-07-21T02:15:49;99784.06;;;21.31;78.48
46942;BME280;32676;52.630;4.896;2022-07-21T02:18:17;99798.41;;;21.30;78.74
46942;BME280;32676;52.630;4.896;2022-07-21T02:20:44;99789.69;;;21.28;78.48
46942;BME280;32676;52.630;4.896;2022-07-21T02:23:12;99782.69;;;21.27;78.99
46942;BME280;32676;52.630;4.896;2022-07-21T02:25:39;99791.66;;;21.26;78.68
46942;BME280;32676;52.630;4.896;2022-07-21T02:28:07;99790.00;;;21.25;79.09
46942;BME280;32676;52.630;4.896;2022-07-21T02:30:33;99798.97;;;21.24;78.82
46942;BME280;32676;52.630;4.896;2022-07-21T02:33:00;99811.06;;;21.28;78.92
46942;BME280;32676;52.630;4.896;2022-07-21T02:35:26;99821.75;;;21.28;79.13
46942;BME280;32676;52.630;4.896;2022-07-21T02:37:53;99828.78;;;21.29;79.56
46942;BME280;32676;52.630;4.896;2022-07-21T02:40:19;99828.78;;;21.29;79.77
46942;BME280;32676;52.630;4.896;2022-07-21T02:42:46;99831.75;;;21.26;79.55
46942;BME280;32676;52.630;4.896;2022-07-21T02:45:14;99815.00;;;21.24;79.85
46942;BME280;32676;52.630;4.896;2022-07-21T02:47:50;99824.72;;;21.25;80.21
46942;BME280;32676;52.630;4.896;2022-07-21T02:50:18;99814.47;;;21.20;81.03
46942;BME280;32676;52.630;4.896;2022-07-21T02:52:45;99807.72;;;21.16;81.45
46942;BME280;32676;52.630;4.896;2022-07-21T02:55:15;99786.34;;;21.06;81.61
46942;BME280;32676;52.630;4.896;2022-07-21T02:57:42;99809.56;;;21.16;81.07
46942;BME280;32676;52.630;4.896;2022-07-21T03:00:10;99803.81;;;21.11;81.55
46942;BME280;32676;52.630;4.896;2022-07-21T03:02:38;99793.13;;;21.11;81.86
46942;BME280;32676;52.630;4.896;2022-07-21T03:05:05;99795.09;;;21.08;81.62
46942;BME280;32676;52.630;4.896;2022-07-21T03:07:33;99799.44;;;21.09;81.88
46942;BME280;32676;52.630;4.896;2022-07-21T03:09:59;99796.75;;;21.09;81.87
46942;BME280;32676;52.630;4.896;2022-07-21T03:12:26;99784.69;;;21.05;81.99
46942;BME280;32676;52.630;4.896;2022-07-21T03:14:52;99788.31;;;21.04;82.19
46942;BME280;32676;52.630;4.896;2022-07-21T03:17:19;99784.97;;;21.02;82.42
46942;BME280;32676;52.630;4.896;2022-07-21T03:19:47;99790.31;;;21.02;82.46
46942;BME280;32676;52.630;4.896;2022-07-21T03:22:13;99785.97;;;21.01;82.44
46942;BME280;32676;52.630;4.896;2022-07-21T03:24:40;99790.31;;;21.02;82.87
46942;BME280;32676;52.630;4.896;2022-07-21T03:27:06;99793.97;;;21.01;82.66
46942;BME280;32676;52.630;4.896;2022-07-21T03:29:33;99805.50;;;21.02;82.69
46942;BME280;32676;52.630;4.896;2022-07-21T03:31:59;99768.41;;;20.89;82.79
46942;BME280;32676;52.630;4.896;2022-07-21T03:34:26;99778.50;;;20.95;82.66
46942;BME280;32676;52.630;4.896;2022-07-21T03:36:53;99777.81;;;20.93;82.52
46942;BME280;32676;52.630;4.896;2022-07-21T03:39:20;99778.81;;;20.92;82.45
46942;BME280;32676;52.630;4.896;2022-07-21T03:41:46;99771.22;;;20.87;82.13
46942;BME280;32676;52.630;4.896;2022-07-21T03:44:13;99764.16;;;20.86;82.50
46942;BME280;32676;52.630;4.896;2022-07-21T03:46:40;99768.66;;;20.86;82.40
46942;BME280;32676;52.630;4.896;2022-07-21T03:49:07;99766.00;;;20.86;82.32
46942;BME280;32676;52.630;4.896;2022-07-21T03:51:33;99772.03;;;20.88;82.28
46942;BME280;32676;52.630;4.896;2022-07-21T03:54:01;99776.53;;;20.87;82.27
46942;BME280;32676;52.630;4.896;2022-07-21T03:56:28;99772.34;;;20.85;82.51
46942;BME280;32676;52.630;4.896;2022-07-21T03:58:55;99771.47;;;20.84;82.36
46942;BME280;32676;52.630;4.896;2022-07-21T04:01:21;99775.16;;;20.83;82.35
46942;BME280;32676;52.630;4.896;2022-07-21T04:03:48;99774.28;;;20.83;82.38
46942;BME280;32676;52.630;4.896;2022-07-21T04:06:14;99772.63;;;20.82;82.62
46942;BME280;32676;52.630;4.896;2022-07-21T04:08:41;99766.72;;;20.78;82.48
46942;BME280;32676;52.630;4.896;2022-07-21T04:11:09;99748.31;;;20.75;82.37
46942;BME280;32676;52.630;4.896;2022-07-21T04:13:35;99764.19;;;20.77;82.55
46942;BME280;32676;52.630;4.896;2022-07-21T04:16:03;99763.50;;;20.75;82.57
46942;BME280;32676;52.630;4.896;2022-07-21T04:18:30;99767.84;;;20.76;82.31
46942;BME280;32676;52.630;4.896;2022-07-21T04:20:56;99765.31;;;20.74;82.33
46942;BME280;32676;52.630;4.896;2022-07-21T04:23:23;99757.44;;;20.73;82.32
46942;BME280;32676;52.630;4.896;2022-07-21T04:25:49;99771.50;;;20.75;82.50
46942;BME280;32676;52.630;4.896;2022-07-21T04:28:17;99774.16;;;20.75;82.81
46942;BME280;32676;52.630;4.896;2022-07-21T04:30:44;99765.47;;;20.73;82.85
46942;BME280;32676;52.630;4.896;2022-07-21T04:33:10;99764.75;;;20.70;82.71
46942;BME280;32676;52.630;4.896;2022-07-21T04:35:37;99771.91;;;20.70;82.70
46942;BME280;32676;52.630;4.896;2022-07-21T04:38:03;99775.44;;;20.70;82.45
46942;BME280;32676;52.630;4.896;2022-07-21T04:40:30;99780.78;;;20.70;82.89
46942;BME280;32676;52.630;4.896;2022-07-21T04:42:56;99780.78;;;20.70;82.78
46942;BME280;32676;52.630;4.896;2022-07-21T04:45:24;99782.75;;;20.68;82.99
46942;BME280;32676;52.630;4.896;2022-07-21T04:47:52;99794.00;;;20.72;83.03
46942;BME280;32676;52.630;4.896;2022-07-21T04:50:24;99799.34;;;20.72;82.94
46942;BME280;32676;52.630;4.896;2022-07-21T04:52:51;99796.81;;;20.70;82.65
46942;BME280;32676;52.630;4.896;2022-07-21T04:55:19;99806.47;;;20.71;82.63
46942;BME280;32676;52.630;4.896;2022-07-21T04:57:47;99810.84;;;20.73;82.68
46942;BME280;32676;52.630;4.896;2022-07-21T05:00:16;99817.84;;;20.74;82.84
46942;BME280;32676;52.630;4.896;2022-07-21T05:02:45;99828.53;;;20.74;82.89
46942;BME280;32676;52.630;4.896;2022-07-21T05:05:12;99825.16;;;20.71;82.82
46942;BME280;32676;52.630;4.896;2022-07-21T05:07:40;99835.59;;;20.75;82.61
46942;BME280;32676;52.630;4.896;2022-07-21T05:10:08;99854.00;;;20.78;82.86
46942;BME280;32676;52.630;4.896;2022-07-21T05:12:35;99843.59;;;20.75;82.56
46942;BME280;32676;52.630;4.896;2022-07-21T05:15:02;99853.31;;;20.76;82.94
46942;BME280;32676;52.630;4.896;2022-07-21T05:17:30;99853.31;;;20.76;82.85
46942;BME280;32676;52.630;4.896;2022-07-21T05:19:58;99860.31;;;20.77;82.50
46942;BME280;32676;52.630;4.896;2022-07-21T05:22:25;99856.94;;;20.75;83.03
46942;BME280;32676;52.630;4.896;2022-07-21T05:24:51;99827.94;;;20.60;82.85
46942;BME280;32676;52.630;4.896;2022-07-21T05:27:18;99851.88;;;20.71;82.91
46942;BME280;32676;52.630;4.896;2022-07-21T05:29:45;99866.78;;;20.74;82.91
46942;BME280;32676;52.630;4.896;2022-07-21T05:32:11;99857.22;;;20.71;83.03
46942;BME280;32676;52.630;4.896;2022-07-21T05:34:38;99872.97;;;20.75;83.54
46942;BME280;32676;52.630;4.896;2022-07-21T05:37:05;99887.00;;;20.77;83.23
46942;BME280;32676;52.630;4.896;2022-07-21T05:39:32;99902.75;;;20.80;83.10
46942;BME280;32676;52.630;4.896;2022-07-21T05:41:58;99918.47;;;20.83;83.38
46942;BME280;32676;52.630;4.896;2022-07-21T05:44:25;99922.44;;;20.79;83.44
46942;BME280;32676;52.630;4.896;2022-07-21T05:46:52;99940.41;;;20.86;83.71
46942;BME280;32676;52.630;4.896;2022-07-21T05:49:18;99953.63;;;20.88;83.72
46942;BME280;32676;52.630;4.896;2022-07-21T05:51:46;99974.75;;;20.91;84.06
46942;BME280;32676;52.630;4.896;2022-07-21T05:54:14;99976.44;;;20.92;83.95
46942;BME280;32676;52.630;4.896;2022-07-21T05:56:40;99995.84;;;20.94;83.92
46942;BME280;32676;52.630;4.896;2022-07-21T05:59:07;100014.97;;;20.99;83.85
46942;BME280;32676;52.630;4.896;2022-07-21T06:01:33;100037.75;;;21.03;83.74
46942;BME280;32676;52.630;4.896;2022-07-21T06:04:00;100081.34;;;21.14;83.30
46942;BME280;32676;52.630;4.896;2022-07-21T06:06:26;100097.13;;;21.17;82.90
46942;BME280;32676;52.630;4.896;2022-07-21T06:08:53;100105.25;;;21.15;82.94
46942;BME280;32676;52.630;4.896;2022-07-21T06:11:22;100139.34;;;21.23;82.36
46942;BME280;32676;52.630;4.896;2022-07-21T06:13:49;100175.94;;;21.32;82.37
46942;BME280;32676;52.630;4.896;2022-07-21T06:16:15;100203.09;;;21.37;82.20
46942;BME280;32676;52.630;4.896;2022-07-21T06:18:42;100206.06;;;21.34;82.08
46942;BME280;32676;52.630;4.896;2022-07-21T06:21:08;100195.88;;;21.28;82.14
46942;BME280;32676;52.630;4.896;2022-07-21T06:23:35;100215.63;;;21.37;82.15
46942;BME280;32676;52.630;4.896;2022-07-21T06:26:01;100191.25;;;21.30;81.95
46942;BME280;32676;52.630;4.896;2022-07-21T06:28:29;100154.50;;;21.22;81.22
46942;BME280;32676;52.630;4.896;2022-07-21T06:30:56;100122.56;;;21.11;82.07
46942;BME280;32676;52.630;4.896;2022-07-21T06:33:22;100104.69;;;21.12;82.04
46942;BME280;32676;52.630;4.896;2022-07-21T06:35:49;100097.81;;;21.09;81.87
46942;BME280;32676;52.630;4.896;2022-07-21T06:38:15;100088.22;;;21.06;81.99
46942;BME280;32676;52.630;4.896;2022-07-21T06:40:42;100071.78;;;21.01;81.60
46942;BME280;32676;52.630;4.896;2022-07-21T06:43:09;100089.22;;;21.05;81.57
46942;BME280;32676;52.630;4.896;2022-07-21T06:45:38;100110.31;;;21.08;81.57
46942;BME280;32676;52.630;4.896;2022-07-21T06:48:06;100085.84;;;21.03;81.22
46942;BME280;32676;52.630;4.896;2022-07-21T06:50:34;100052.63;;;20.96;81.03
46942;BME280;32676;52.630;4.896;2022-07-21T06:53:00;100036.31;;;20.89;81.40
46942;BME280;32676;52.630;4.896;2022-07-21T06:55:28;100057.97;;;20.96;81.42
46942;BME280;32676;52.630;4.896;2022-07-21T06:57:55;100034.63;;;20.88;81.11
46942;BME280;32676;52.630;4.896;2022-07-21T07:00:22;100002.53;;;20.79;81.30
46942;BME280;32676;52.630;4.896;2022-07-21T07:02:50;99966.53;;;20.73;81.47
46942;BME280;32676;52.630;4.896;2022-07-21T07:05:17;99936.69;;;20.58;82.31
46942;BME280;32676;52.630;4.896;2022-07-21T07:07:43;99943.19;;;20.65;81.79
46942;BME280;32676;52.630;4.896;2022-07-21T07:10:13;99917.56;;;20.53;81.90
46942;BME280;32676;52.630;4.896;2022-07-21T07:12:39;99922.63;;;20.56;81.87
46942;BME280;32676;52.630;4.896;2022-07-21T07:15:06;99917.16;;;20.58;81.74
46942;BME280;32676;52.630;4.896;2022-07-21T07:17:33;99902.09;;;20.47;81.95
46942;BME280;32676;52.630;4.896;2022-07-21T07:20:01;99913.94;;;20.54;81.71
46942;BME280;32676;52.630;4.896;2022-07-21T07:22:29;99887.06;;;20.46;82.09
46942;BME280;32676;52.630;4.896;2022-07-21T07:24:55;99875.81;;;20.42;81.70
46942;BME280;32676;52.630;4.896;2022-07-21T07:27:22;99883.28;;;20.48;81.39
46942;BME280;32676;52.630;4.896;2022-07-21T07:29:48;99898.44;;;20.48;81.30
46942;BME280;32676;52.630;4.896;2022-07-21T07:32:15;99883.69;;;20.44;81.81
46942;BME280;32676;52.630;4.896;2022-07-21T07:34:42;99875.69;;;20.44;82.03
46942;BME280;32676;52.630;4.896;2022-07-21T07:37:10;99870.34;;;20.44;81.98
46942;BME280;32676;52.630;4.896;2022-07-21T07:39:36;99881.97;;;20.43;81.92
46942;BME280;32676;52.630;4.896;2022-07-21T07:42:04;99875.94;;;20.41;81.66
46942;BME280;32676;52.630;4.896;2022-07-21T07:44:31;99892.53;;;20.44;82.10
46942;BME280;32676;52.630;4.896;2022-07-21T07:46:59;99898.72;;;20.45;82.16
46942;BME280;32676;52.630;4.896;2022-07-21T07:49:27;99887.75;;;20.38;81.58
46942;BME280;32676;52.630;4.896;2022-07-21T07:51:56;99888.31;;;20.42;81.78
46942;BME280;32676;52.630;4.896;2022-07-21T07:54:24;99886.63;;;20.41;81.72
46942;BME280;32676;52.630;4.896;2022-07-21T07:56:51;99848.41;;;20.30;81.68
46942;BME280;32676;52.630;4.896;2022-07-21T07:59:17;99840.22;;;20.22;81.85
46942;BME280;32676;52.630;4.896;2022-07-21T08:01:44;99839.41;;;20.31;81.73
46942;BME280;32676;52.630;4.896;2022-07-21T08:04:10;99841.38;;;20.29;81.72
46942;BME280;32676;52.630;4.896;2022-07-21T08:06:39;99861.47;;;20.33;81.68
46942;BME280;32676;52.630;4.896;2022-07-21T08:09:06;99873.84;;;20.35;81.61
46942;BME280;32676;52.630;4.896;2022-07-21T08:11:34;99852.88;;;20.20;82.01
46942;BME280;32676;52.630;4.896;2022-07-21T08:14:01;99848.94;;;20.24;81.42
46942;BME280;32676;52.630;4.896;2022-07-21T08:16:27;99843.91;;;20.21;81.94
46942;BME280;32676;52.630;4.896;2022-07-21T08:18:54;99820.72;;;20.12;81.20
46942;BME280;32676;52.630;4.896;2022-07-21T08:21:20;99840.81;;;20.26;81.64
46942;BME280;32676;52.630;4.896;2022-07-21T08:23:47;99843.59;;;20.24;82.13
46942;BME280;32676;52.630;4.896;2022-07-21T08:26:14;99854.97;;;20.26;82.72
46942;BME280;32676;52.630;4.896;2022-07-21T08:28:41;99860.75;;;20.22;82.76
46942;BME280;32676;52.630;4.896;2022-07-21T08:31:08;99845.81;;;20.19;82.55
46942;BME280;32676;52.630;4.896;2022-07-21T08:33:35;99862.16;;;20.26;82.94
46942;BME280;32676;52.630;4.896;2022-07-21T08:36:01;99847.78;;;20.17;82.94
46942;BME280;32676;52.630;4.896;2022-07-21T08:38:28;99887.72;;;20.28;82.91
46942;BME280;32676;52.630;4.896;2022-07-21T08:40:54;99920.59;;;20.39;82.20
46942;BME280;32676;52.630;4.896;2022-07-21T08:43:23;99959.38;;;20.43;82.46
46942;BME280;32676;52.630;4.896;2022-07-21T08:45:55;99987.97;;;20.52;82.28
46942;BME280;32676;52.630;4.896;2022-07-21T08:48:25;99992.28;;;20.43;81.30
46942;BME280;32676;52.630;4.896;2022-07-21T08:50:53;99994.53;;;20.48;81.23
46942;BME280;32676;52.630;4.896;2022-07-21T08:53:19;100010.03;;;20.54;81.36
46942;BME280;32676;52.630;4.896;2022-07-21T08:55:46;100015.34;;;20.54;81.52
46942;BME280;32676;52.630;4.896;2022-07-21T08:58:13;100029.41;;;20.56;80.63
46942;BME280;32676;52.630;4.896;2022-07-21T09:00:42;100031.94;;;20.58;80.14
46942;BME280;32676;52.630;4.896;2022-07-21T09:03:12;100012.50;;;20.46;78.82
46942;BME280;32676;52.630;4.896;2022-07-21T09:05:39;100027.69;;;20.55;79.25
46942;BME280;32676;52.630;4.896;2022-07-21T09:08:05;100028.00;;;20.52;78.71
46942;BME280;32676;52.630;4.896;2022-07-21T09:10:32;100017.13;;;20.44;78.61
46942;BME280;32676;52.630;4.896;2022-07-21T09:13:05;100040.91;;;20.57;78.99
46942;BME280;32676;52.630;4.896;2022-07-21T09:15:32;100038.34;;;20.45;79.77
46942;BME280;32676;52.630;4.896;2022-07-21T09:18:09;100046.25;;;20.57;79.59
46942;BME280;32676;52.630;4.896;2022-07-21T09:20:38;100049.94;;;20.56;79.58
46942;BME280;32676;52.630;4.896;2022-07-21T09:23:07;100036.38;;;20.47;78.49
46942;BME280;32676;52.630;4.896;2022-07-21T09:25:36;100025.13;;;20.44;78.08
46942;BME280;32676;52.630;4.896;2022-07-21T09:28:10;100045.44;;;20.56;78.69
46942;BME280;32676;52.630;4.896;2022-07-21T09:30:50;100083.13;;;20.63;78.53
46942;BME280;32676;52.630;4.896;2022-07-21T09:33:22;100110.16;;;20.69;79.06
46942;BME280;32676;52.630;4.896;2022-07-21T09:35:59;100117.44;;;20.67;79.15
46942;BME280;32676;52.630;4.896;2022-07-21T09:38:28;100156.56;;;20.78;79.41
46942;BME280;32676;52.630;4.896;2022-07-21T09:40:55;100181.91;;;20.84;79.54
46942;BME280;32676;52.630;4.896;2022-07-21T09:43:37;100232.56;;;20.95;78.50
46942;BME280;32676;52.630;4.896;2022-07-21T09:46:14;100259.97;;;20.97;78.30
46942;BME280;32676;52.630;4.896;2022-07-21T09:48:42;100250.56;;;20.93;77.93
46942;BME280;32676;52.630;4.896;2022-07-21T09:51:22;100254.66;;;20.97;78.50
46942;BME280;32676;52.630;4.896;2022-07-21T09:53:51;100279.28;;;21.01;78.83
46942;BME280;32676;52.630;4.896;2022-07-21T09:56:19;100270.25;;;20.92;78.40
46942;BME280;32676;52.630;4.896;2022-07-21T09:58:46;100315.19;;;21.08;78.04
46942;BME280;32676;52.630;4.896;2022-07-21T10:01:14;100349.00;;;21.19;78.14
46942;BME280;32676;52.630;4.896;2022-07-21T10:03:43;100336.44;;;21.09;78.36
46942;BME280;32676;52.630;4.896;2022-07-21T10:06:11;100374.50;;;21.23;78.58
46942;BME280;32676;52.630;4.896;2022-07-21T10:08:40;100404.34;;;21.28;77.98
46942;BME280;32676;52.630;4.896;2022-07-21T10:11:08;100406.06;;;21.29;78.38
46942;BME280;32676;52.630;4.896;2022-07-21T10:13:36;100407.00;;;21.28;77.64
46942;BME280;32676;52.630;4.896;2022-07-21T10:16:03;100385.44;;;21.20;76.91
46942;BME280;32676;52.630;4.896;2022-07-21T10:18:34;100388.59;;;21.25;77.42
46942;BME280;32676;52.630;4.896;2022-07-21T10:21:08;100359.81;;;21.17;77.50
46942;BME280;32676;52.630;4.896;2022-07-21T10:23:41;100367.13;;;21.15;77.29
46942;BME280;32676;52.630;4.896;2022-07-21T10:26:10;100353.75;;;21.15;77.28
46942;BME280;32676;52.630;4.896;2022-07-21T10:28:45;100360.94;;;21.15;76.92
46942;BME280;32676;52.630;4.896;2022-07-21T10:31:15;100349.53;;;21.13;77.05
46942;BME280;32676;52.630;4.896;2022-07-21T10:33:56;100355.84;;;21.12;77.17
46942;BME280;32676;52.630;4.896;2022-07-21T10:36:40;100354.41;;;21.07;77.58
46942;BME280;32676;52.630;4.896;2022-07-21T10:39:25;100378.69;;;21.16;78.61
46942;BME280;32676;52.630;4.896;2022-07-21T10:41:54;100419.66;;;21.26;78.61
46942;BME280;32676;52.630;4.896;2022-07-21T10:44:45;100477.31;;;21.40;77.43
46942;BME280;32676;52.630;4.896;2022-07-21T10:47:14;100480.13;;;21.38;77.60
46942;BME280;32676;52.630;4.896;2022-07-21T10:49:50;100485.47;;;21.38;77.57
46942;BME280;32676;52.630;4.896;2022-07-21T10:55:37;100530.88;;;21.50;76.84
46942;BME280;32676;52.630;4.896;2022-07-21T10:58:10;100510.00;;;21.43;76.10
46942;BME280;32676;52.630;4.896;2022-07-21T11:00:37;100505.72;;;21.41;76.28
46942;BME280;32676;52.630;4.896;2022-07-21T11:03:14;100485.47;;;21.38;76.89
46942;BME280;32676;52.630;4.896;2022-07-21T11:06:15;100507.31;;;21.43;76.42
46942;BME280;32676;52.630;4.896;2022-07-21T11:08:44;100517.94;;;21.45;76.91
46942;BME280;32676;52.630;4.896;2022-07-21T11:11:13;100508.28;;;21.42;76.75
46942;BME280;32676;52.630;4.896;2022-07-21T11:14:00;100532.97;;;21.46;76.60
46942;BME280;32676;52.630;4.896;2022-07-21T11:19:36;100616.88;;;21.66;77.31
46942;BME280;32676;52.630;4.896;2022-07-21T11:22:06;100635.38;;;21.69;77.39
46942;BME280;32676;52.630;4.896;2022-07-21T11:24:33;100662.59;;;21.74;76.82
46942;BME280;32676;52.630;4.896;2022-07-21T11:27:03;100660.63;;;21.76;75.50
46942;BME280;32676;52.630;4.896;2022-07-21T11:29:30;100680.06;;;21.78;75.76
46942;BME280;32676;52.630;4.896;2022-07-21T11:31:58;100713.38;;;21.85;76.10
46942;BME280;32676;52.630;4.896;2022-07-21T11:34:36;100662.59;;;21.74;76.00
46942;BME280;32676;52.630;4.896;2022-07-21T11:37:03;100634.63;;;21.67;76.33
46942;BME280;32676;52.630;4.896;2022-07-21T11:39:30;100616.88;;;21.66;76.27
46942;BME280;32676;52.630;4.896;2022-07-21T11:42:03;100615.44;;;21.62;77.14
46942;BME280;32676;52.630;4.896;2022-07-21T11:44:30;100573.31;;;21.54;77.25
46942;BME280;32676;52.630;4.896;2022-07-21T11:46:58;100546.34;;;21.46;77.44
46942;BME280;32676;52.630;4.896;2022-07-21T11:49:25;100527.28;;;21.39;78.00
46942;BME280;32676;52.630;4.896;2022-07-21T11:51:53;100554.22;;;21.47;78.06
46942;BME280;32676;52.630;4.896;2022-07-21T11:54:27;100527.41;;;21.38;79.12
46942;BME280;32676;52.630;4.896;2022-07-21T11:56:55;100536.00;;;21.41;79.08
46942;BME280;32676;52.630;4.896;2022-07-21T11:59:26;100522.88;;;21.38;78.73
46942;BME280;32676;52.630;4.896;2022-07-21T12:01:56;100543.75;;;21.44;78.65
46942;BME280;32676;52.630;4.896;2022-07-21T12:04:27;100476.09;;;21.12;78.54
46942;BME280;32676;52.630;4.896;2022-07-21T12:06:54;100504.53;;;21.34;78.67
46942;BME280;32676;52.630;4.896;2022-07-21T12:09:21;100487.19;;;21.28;79.01
46942;BME280;32676;52.630;4.896;2022-07-21T12:11:48;100480.16;;;21.27;78.68
46942;BME280;32676;52.630;4.896;2022-07-21T12:14:15;100449.59;;;21.20;79.46
46942;BME280;32676;52.630;4.896;2022-07-21T12:16:55;100444.25;;;21.20;79.54
46942;BME280;32676;52.630;4.896;2022-07-21T12:19:21;100456.88;;;21.18;79.49
46942;BME280;32676;52.630;4.896;2022-07-21T12:21:50;100487.47;;;21.25;79.26
46942;BME280;32676;52.630;4.896;2022-07-21T12:24:17;100475.47;;;21.19;79.18
46942;BME280;32676;52.630;4.896;2022-07-21T12:26:44;100468.16;;;21.21;78.91
46942;BME280;32676;52.630;4.896;2022-07-21T12:29:25;100411.16;;;21.00;78.93
46942;BME280;32676;52.630;4.896;2022-07-21T12:31:53;100453.22;;;21.19;79.82
46942;BME280;32676;52.630;4.896;2022-07-21T12:34:19;100457.38;;;21.12;79.78
46942;BME280;32676;52.630;4.896;2022-07-21T12:36:46;100486.00;;;21.21;79.75
46942;BME280;32676;52.630;4.896;2022-07-21T12:39:18;100533.50;;;21.28;79.79
46942;BME280;32676;52.630;4.896;2022-07-21T12:42:03;100546.72;;;21.30;80.04
46942;BME280;32676;52.630;4.896;2022-07-21T12:44:32;100571.97;;;21.37;79.45
46942;BME280;32676;52.630;4.896;2022-07-21T12:47:14;100579.50;;;21.43;79.43
46942;BME280;32676;52.630;4.896;2022-07-21T12:49:58;100558.16;;;21.32;79.76
46942;BME280;32676;52.630;4.896;2022-07-21T12:52:25;100576.09;;;21.41;80.11
46942;BME280;32676;52.630;4.896;2022-07-21T12:54:52;100533.22;;;21.32;79.53
46942;BME280;32676;52.630;4.896;2022-07-21T12:57:19;100525.31;;;21.30;79.53
46942;BME280;32676;52.630;4.896;2022-07-21T12:59:46;100532.38;;;21.31;79.25
46942;BME280;32676;52.630;4.896;2022-07-21T13:02:16;100537.50;;;21.34;78.81
46942;BME280;32676;52.630;4.896;2022-07-21T13:04:42;100546.72;;;21.30;79.13
46942;BME280;32676;52.630;4.896;2022-07-21T13:07:09;100537.00;;;21.29;78.34